sensor_id;sensor_type;location;lat;lon;timestamp;P1;durP1;ratioP1;P2;durP2;ratioP2
47749;SDS011;49810;48.160;10.812;2022-11-15T00:02:39;28.08;;;14.60;;
47749;SDS011;49810;48.160;10.812;2022-11-15T00:05:26;24.40;;;14.13;;
47749;SDS011;49810;48.160;10.812;2022-11-15T00:08:15;27.10;;;14.93;;
47749;SDS011;49810;48.160;10.812;2022-11-15T00:11:02;20.35;;;12.70;;
47749;SDS011;49810;48.160;10.812;2022-11-15T00:13:49;20.83;;;12.23;;
47749;SDS011;49810;48.160;10.812;2022-11-15T00:16:36;19.85;;;11.82;;
47749;SDS011;49810;48.160;10.812;2022-11-15T00:19:23;18.73;;;11.63;;
47749;SDS011;49810;48.160;10.812;2022-11-15T00:22:10;24.13;;;13.13;;
47749;SDS011;49810;48.160;10.812;2022-11-15T00:24:58;26.27;;;13.43;;
47749;SDS011;49810;48.160;10.812;2022-11-15T00:27:44;21.25;;;11.88;;
47749;SDS011;49810;48.160;10.812;2022-11-15T00:30:31;19.35;;;10.88;;
47749;SDS011;49810;48.160;10.812;2022-11-15T00:33:17;18.20;;;11.00;;
47749;SDS011;49810;48.160;10.812;2022-11-15T00:36:04;18.13;;;11.85;;
47749;SDS011;49810;48.160;10.812;2022-11-15T00:38:54;19.25;;;11.27;;
47749;SDS011;49810;48.160;10.812;2022-11-15T00:41:42;21.25;;;12.18;;
47749;SDS011;49810;48.160;10.812;2022-11-15T00:44:29;22.90;;;12.43;;
47749;SDS011;49810;48.160;10.812;2022-11-15T00:47:15;21.65;;;13.43;;
47749;SDS011;49810;48.160;10.812;2022-11-15T00:50:02;22.58;;;14.25;;
47749;SDS011;49810;48.160;10.812;2022-11-15T00:52:49;21.58;;;13.38;;
47749;SDS011;49810;48.160;10.812;2022-11-15T00:55:36;23.27;;;12.93;;
47749;SDS011;49810;48.160;10.812;2022-11-15T00:58:24;20.83;;;12.02;;
47749;SDS011;49810;48.160;10.812;2022-11-15T01:01:12;21.27;;;13.15;;
47749;SDS011;49810;48.160;10.812;2022-11-15T01:04:00;21.17;;;13.55;;
47749;SDS011;49810;48.160;10.812;2022-11-15T01:06:47;21.83;;;12.00;;
47749;SDS011;49810;48.160;10.812;2022-11-15T01:09:34;22.95;;;13.90;;
47749;SDS011;49810;48.160;10.812;2022-11-15T01:12:20;24.88;;;14.75;;
47749;SDS011;49810;48.160;10.812;2022-11-15T01:15:09;25.00;;;14.57;;
47749;SDS011;49810;48.160;10.812;2022-11-15T01:17:56;25.75;;;14.70;;
47749;SDS011;49810;48.160;10.812;2022-11-15T01:20:43;22.90;;;14.38;;
47749;SDS011;49810;48.160;10.812;2022-11-15T01:23:29;27.85;;;16.65;;
47749;SDS011;49810;48.160;10.812;2022-11-15T01:26:17;25.58;;;15.27;;
47749;SDS011;49810;48.160;10.812;2022-11-15T01:29:03;25.00;;;15.77;;
47749;SDS011;49810;48.160;10.812;2022-11-15T01:31:52;30.13;;;17.15;;
47749;SDS011;49810;48.160;10.812;2022-11-15T01:34:39;23.42;;;15.43;;
47749;SDS011;49810;48.160;10.812;2022-11-15T01:37:25;22.83;;;14.98;;
47749;SDS011;49810;48.160;10.812;2022-11-15T01:40:12;27.58;;;16.38;;
47749;SDS011;49810;48.160;10.812;2022-11-15T01:42:59;26.85;;;16.27;;
47749;SDS011;49810;48.160;10.812;2022-11-15T01:46:06;26.20;;;15.88;;
47749;SDS011;49810;48.160;10.812;2022-11-15T01:49:11;29.15;;;16.63;;
47749;SDS011;49810;48.160;10.812;2022-11-15T01:52:01;27.02;;;15.68;;
47749;SDS011;49810;48.160;10.812;2022-11-15T01:54:50;24.45;;;14.13;;
47749;SDS011;49810;48.160;10.812;2022-11-15T01:57:41;23.70;;;14.32;;
47749;SDS011;49810;48.160;10.812;2022-11-15T02:00:31;25.60;;;15.23;;
47749;SDS011;49810;48.160;10.812;2022-11-15T02:03:18;27.45;;;15.32;;
47749;SDS011;49810;48.160;10.812;2022-11-15T02:06:09;25.88;;;14.77;;
47749;SDS011;49810;48.160;10.812;2022-11-15T02:08:56;21.77;;;13.65;;
47749;SDS011;49810;48.160;10.812;2022-11-15T02:11:43;24.52;;;13.95;;
47749;SDS011;49810;48.160;10.812;2022-11-15T02:14:31;21.80;;;13.82;;
47749;SDS011;49810;48.160;10.812;2022-11-15T02:17:29;20.00;;;12.93;;
47749;SDS011;49810;48.160;10.812;2022-11-15T02:20:40;23.23;;;13.13;;
47749;SDS011;49810;48.160;10.812;2022-11-15T02:23:43;17.92;;;11.90;;
47749;SDS011;49810;48.160;10.812;2022-11-15T02:30:30;20.95;;;12.13;;
47749;SDS011;49810;48.160;10.812;2022-11-15T02:33:30;21.33;;;12.68;;
47749;SDS011;49810;48.160;10.812;2022-11-15T02:36:26;20.75;;;13.02;;
47749;SDS011;49810;48.160;10.812;2022-11-15T02:39:23;18.05;;;12.10;;
47749;SDS011;49810;48.160;10.812;2022-11-15T02:42:15;18.98;;;12.23;;
47749;SDS011;49810;48.160;10.812;2022-11-15T02:45:25;18.98;;;12.30;;
47749;SDS011;49810;48.160;10.812;2022-11-15T02:48:16;21.83;;;14.63;;
47749;SDS011;49810;48.160;10.812;2022-11-15T02:51:04;23.92;;;15.05;;
47749;SDS011;49810;48.160;10.812;2022-11-15T02:53:52;20.95;;;13.00;;
47749;SDS011;49810;48.160;10.812;2022-11-15T02:56:39;18.92;;;11.85;;
47749;SDS011;49810;48.160;10.812;2022-11-15T02:59:42;17.15;;;11.32;;
47749;SDS011;49810;48.160;10.812;2022-11-15T03:02:51;18.40;;;10.57;;
47749;SDS011;49810;48.160;10.812;2022-11-15T03:05:54;18.05;;;10.52;;
47749;SDS011;49810;48.160;10.812;2022-11-15T03:08:48;19.05;;;11.80;;
47749;SDS011;49810;48.160;10.812;2022-11-15T03:11:43;20.02;;;12.55;;
47749;SDS011;49810;48.160;10.812;2022-11-15T03:14:37;20.98;;;13.18;;
47749;SDS011;49810;48.160;10.812;2022-11-15T03:17:30;18.45;;;10.43;;
47749;SDS011;49810;48.160;10.812;2022-11-15T03:20:22;17.30;;;10.10;;
47749;SDS011;49810;48.160;10.812;2022-11-15T03:23:13;18.17;;;10.23;;
47749;SDS011;49810;48.160;10.812;2022-11-15T03:26:00;20.40;;;9.77;;
47749;SDS011;49810;48.160;10.812;2022-11-15T03:28:49;17.65;;;10.30;;
47749;SDS011;49810;48.160;10.812;2022-11-15T03:31:39;18.60;;;9.85;;
47749;SDS011;49810;48.160;10.812;2022-11-15T03:34:36;16.50;;;10.50;;
47749;SDS011;49810;48.160;10.812;2022-11-15T03:37:29;16.25;;;11.00;;
47749;SDS011;49810;48.160;10.812;2022-11-15T03:40:22;17.63;;;11.13;;
47749;SDS011;49810;48.160;10.812;2022-11-15T03:43:15;19.17;;;11.88;;
47749;SDS011;49810;48.160;10.812;2022-11-15T03:46:11;17.50;;;10.82;;
47749;SDS011;49810;48.160;10.812;2022-11-15T03:49:04;20.35;;;12.07;;
47749;SDS011;49810;48.160;10.812;2022-11-15T03:51:56;17.98;;;12.15;;
47749;SDS011;49810;48.160;10.812;2022-11-15T03:54:47;20.92;;;12.30;;
47749;SDS011;49810;48.160;10.812;2022-11-15T03:57:37;19.23;;;10.57;;
47749;SDS011;49810;48.160;10.812;2022-11-15T04:00:24;20.80;;;11.70;;
47749;SDS011;49810;48.160;10.812;2022-11-15T04:03:11;20.25;;;12.73;;
47749;SDS011;49810;48.160;10.812;2022-11-15T04:05:58;19.92;;;12.35;;
47749;SDS011;49810;48.160;10.812;2022-11-15T04:08:44;18.63;;;12.45;;
47749;SDS011;49810;48.160;10.812;2022-11-15T04:11:31;22.85;;;12.40;;
47749;SDS011;49810;48.160;10.812;2022-11-15T04:14:19;17.92;;;11.75;;
47749;SDS011;49810;48.160;10.812;2022-11-15T04:17:05;21.27;;;12.20;;
47749;SDS011;49810;48.160;10.812;2022-11-15T04:19:52;19.00;;;11.52;;
47749;SDS011;49810;48.160;10.812;2022-11-15T04:22:57;18.17;;;11.55;;
47749;SDS011;49810;48.160;10.812;2022-11-15T04:26:03;19.15;;;10.95;;
47749;SDS011;49810;48.160;10.812;2022-11-15T04:28:51;20.38;;;11.00;;
47749;SDS011;49810;48.160;10.812;2022-11-15T04:32:03;18.15;;;10.68;;
47749;SDS011;49810;48.160;10.812;2022-11-15T04:34:51;18.75;;;11.95;;
47749;SDS011;49810;48.160;10.812;2022-11-15T04:37:37;21.13;;;11.40;;
47749;SDS011;49810;48.160;10.812;2022-11-15T04:40:30;20.17;;;12.07;;
47749;SDS011;49810;48.160;10.812;2022-11-15T04:43:17;19.23;;;12.15;;
47749;SDS011;49810;48.160;10.812;2022-11-15T04:46:04;18.23;;;11.82;;
47749;SDS011;49810;48.160;10.812;2022-11-15T04:48:52;19.65;;;11.68;;
47749;SDS011;49810;48.160;10.812;2022-11-15T04:51:43;21.15;;;12.90;;
47749;SDS011;49810;48.160;10.812;2022-11-15T04:54:30;19.88;;;11.95;;
47749;SDS011;49810;48.160;10.812;2022-11-15T04:57:17;18.38;;;11.68;;
47749;SDS011;49810;48.160;10.812;2022-11-15T05:00:05;24.00;;;14.38;;
47749;SDS011;49810;48.160;10.812;2022-11-15T05:02:54;30.33;;;19.52;;
47749;SDS011;49810;48.160;10.812;2022-11-15T05:06:00;22.88;;;14.02;;
47749;SDS011;49810;48.160;10.812;2022-11-15T05:08:47;20.63;;;13.10;;
47749;SDS011;49810;48.160;10.812;2022-11-15T05:11:33;22.13;;;13.65;;
47749;SDS011;49810;48.160;10.812;2022-11-15T05:14:20;19.98;;;12.38;;
47749;SDS011;49810;48.160;10.812;2022-11-15T05:17:07;16.88;;;10.82;;
47749;SDS011;49810;48.160;10.812;2022-11-15T05:19:54;20.50;;;11.60;;
47749;SDS011;49810;48.160;10.812;2022-11-15T05:22:42;23.55;;;13.88;;
47749;SDS011;49810;48.160;10.812;2022-11-15T05:25:29;24.98;;;13.18;;
47749;SDS011;49810;48.160;10.812;2022-11-15T05:28:15;45.28;;;25.15;;
47749;SDS011;49810;48.160;10.812;2022-11-15T05:31:03;30.77;;;18.15;;
47749;SDS011;49810;48.160;10.812;2022-11-15T05:33:51;21.67;;;11.55;;
47749;SDS011;49810;48.160;10.812;2022-11-15T05:36:38;22.75;;;12.30;;
47749;SDS011;49810;48.160;10.812;2022-11-15T05:39:30;19.90;;;11.80;;
47749;SDS011;49810;48.160;10.812;2022-11-15T05:42:17;20.35;;;11.95;;
47749;SDS011;49810;48.160;10.812;2022-11-15T05:45:05;18.67;;;11.77;;
47749;SDS011;49810;48.160;10.812;2022-11-15T05:47:55;22.70;;;13.02;;
47749;SDS011;49810;48.160;10.812;2022-11-15T05:50:45;24.95;;;13.13;;
47749;SDS011;49810;48.160;10.812;2022-11-15T05:53:33;21.05;;;12.98;;
47749;SDS011;49810;48.160;10.812;2022-11-15T05:56:23;25.88;;;14.15;;
47749;SDS011;49810;48.160;10.812;2022-11-15T05:59:11;38.83;;;22.55;;
47749;SDS011;49810;48.160;10.812;2022-11-15T06:01:58;24.33;;;14.43;;
47749;SDS011;49810;48.160;10.812;2022-11-15T06:04:45;17.52;;;10.02;;
47749;SDS011;49810;48.160;10.812;2022-11-15T06:07:32;25.15;;;14.57;;
47749;SDS011;49810;48.160;10.812;2022-11-15T06:10:19;26.23;;;15.57;;
47749;SDS011;49810;48.160;10.812;2022-11-15T06:13:07;27.58;;;13.90;;
47749;SDS011;49810;48.160;10.812;2022-11-15T06:15:55;19.35;;;9.70;;
47749;SDS011;49810;48.160;10.812;2022-11-15T06:18:42;19.77;;;11.60;;
47749;SDS011;49810;48.160;10.812;2022-11-15T06:21:29;19.80;;;10.88;;
47749;SDS011;49810;48.160;10.812;2022-11-15T06:24:15;17.23;;;10.20;;
47749;SDS011;49810;48.160;10.812;2022-11-15T06:27:02;21.38;;;10.95;;
47749;SDS011;49810;48.160;10.812;2022-11-15T06:29:50;21.10;;;13.35;;
47749;SDS011;49810;48.160;10.812;2022-11-15T06:32:37;24.20;;;14.75;;
47749;SDS011;49810;48.160;10.812;2022-11-15T06:35:24;23.10;;;15.98;;
47749;SDS011;49810;48.160;10.812;2022-11-15T06:38:11;21.13;;;12.57;;
47749;SDS011;49810;48.160;10.812;2022-11-15T06:41:01;17.30;;;10.95;;
47749;SDS011;49810;48.160;10.812;2022-11-15T06:43:48;18.65;;;11.75;;
47749;SDS011;49810;48.160;10.812;2022-11-15T06:46:36;20.50;;;11.57;;
47749;SDS011;49810;48.160;10.812;2022-11-15T06:49:23;20.00;;;12.38;;
47749;SDS011;49810;48.160;10.812;2022-11-15T06:52:10;18.80;;;12.60;;
47749;SDS011;49810;48.160;10.812;2022-11-15T06:54:56;22.30;;;13.38;;
47749;SDS011;49810;48.160;10.812;2022-11-15T06:57:47;20.85;;;12.48;;
47749;SDS011;49810;48.160;10.812;2022-11-15T07:00:35;24.48;;;13.05;;
47749;SDS011;49810;48.160;10.812;2022-11-15T07:03:24;22.50;;;12.32;;
47749;SDS011;49810;48.160;10.812;2022-11-15T07:06:10;21.30;;;12.00;;
47749;SDS011;49810;48.160;10.812;2022-11-15T07:08:57;22.58;;;12.63;;
47749;SDS011;49810;48.160;10.812;2022-11-15T07:11:44;20.90;;;11.88;;
47749;SDS011;49810;48.160;10.812;2022-11-15T07:14:30;18.83;;;10.85;;
47749;SDS011;49810;48.160;10.812;2022-11-15T07:17:17;13.02;;;8.68;;
47749;SDS011;49810;48.160;10.812;2022-11-15T07:20:06;14.63;;;8.95;;
47749;SDS011;49810;48.160;10.812;2022-11-15T07:22:58;15.45;;;9.55;;
47749;SDS011;49810;48.160;10.812;2022-11-15T07:25:47;15.75;;;9.00;;
47749;SDS011;49810;48.160;10.812;2022-11-15T07:28:34;14.60;;;9.27;;
47749;SDS011;49810;48.160;10.812;2022-11-15T07:31:21;14.70;;;8.98;;
47749;SDS011;49810;48.160;10.812;2022-11-15T07:34:11;15.77;;;9.57;;
47749;SDS011;49810;48.160;10.812;2022-11-15T07:36:59;17.08;;;9.75;;
47749;SDS011;49810;48.160;10.812;2022-11-15T07:39:46;18.20;;;9.05;;
47749;SDS011;49810;48.160;10.812;2022-11-15T07:42:33;20.20;;;9.65;;
47749;SDS011;49810;48.160;10.812;2022-11-15T07:45:39;16.27;;;9.68;;
47749;SDS011;49810;48.160;10.812;2022-11-15T07:48:27;22.25;;;11.65;;
47749;SDS011;49810;48.160;10.812;2022-11-15T07:51:28;18.17;;;11.00;;
47749;SDS011;49810;48.160;10.812;2022-11-15T07:54:17;17.45;;;9.85;;
47749;SDS011;49810;48.160;10.812;2022-11-15T07:57:04;18.13;;;9.10;;
47749;SDS011;49810;48.160;10.812;2022-11-15T07:59:52;18.10;;;9.05;;
47749;SDS011;49810;48.160;10.812;2022-11-15T08:02:39;16.25;;;9.07;;
47749;SDS011;49810;48.160;10.812;2022-11-15T08:05:26;20.13;;;10.60;;
47749;SDS011;49810;48.160;10.812;2022-11-15T08:08:13;16.35;;;9.20;;
47749;SDS011;49810;48.160;10.812;2022-11-15T08:11:01;13.57;;;7.93;;
47749;SDS011;49810;48.160;10.812;2022-11-15T08:13:48;15.45;;;8.00;;
47749;SDS011;49810;48.160;10.812;2022-11-15T08:16:35;16.08;;;7.95;;
47749;SDS011;49810;48.160;10.812;2022-11-15T08:19:22;15.45;;;8.60;;
47749;SDS011;49810;48.160;10.812;2022-11-15T08:22:09;17.75;;;8.35;;
47749;SDS011;49810;48.160;10.812;2022-11-15T08:24:55;15.95;;;7.95;;
47749;SDS011;49810;48.160;10.812;2022-11-15T08:27:44;15.35;;;8.00;;
47749;SDS011;49810;48.160;10.812;2022-11-15T08:30:30;13.45;;;7.50;;
47749;SDS011;49810;48.160;10.812;2022-11-15T08:33:22;11.32;;;5.97;;
47749;SDS011;49810;48.160;10.812;2022-11-15T08:36:10;11.27;;;6.18;;
47749;SDS011;49810;48.160;10.812;2022-11-15T08:38:59;10.60;;;5.38;;
47749;SDS011;49810;48.160;10.812;2022-11-15T08:41:45;10.45;;;5.88;;
47749;SDS011;49810;48.160;10.812;2022-11-15T08:44:34;10.52;;;5.70;;
47749;SDS011;49810;48.160;10.812;2022-11-15T08:47:20;13.48;;;5.78;;
47749;SDS011;49810;48.160;10.812;2022-11-15T08:50:08;24.00;;;7.00;;
47749;SDS011;49810;48.160;10.812;2022-11-15T08:52:55;10.80;;;4.78;;
47749;SDS011;49810;48.160;10.812;2022-11-15T08:55:41;10.32;;;4.63;;
47749;SDS011;49810;48.160;10.812;2022-11-15T08:58:28;9.55;;;4.88;;
47749;SDS011;49810;48.160;10.812;2022-11-15T09:01:17;10.20;;;5.97;;
47749;SDS011;49810;48.160;10.812;2022-11-15T09:04:06;12.13;;;5.75;;
47749;SDS011;49810;48.160;10.812;2022-11-15T09:06:53;7.45;;;4.05;;
47749;SDS011;49810;48.160;10.812;2022-11-15T09:09:40;6.85;;;4.25;;
47749;SDS011;49810;48.160;10.812;2022-11-15T09:12:27;11.68;;;4.45;;
47749;SDS011;49810;48.160;10.812;2022-11-15T09:15:14;9.52;;;4.38;;
47749;SDS011;49810;48.160;10.812;2022-11-15T09:18:06;9.93;;;4.60;;
47749;SDS011;49810;48.160;10.812;2022-11-15T09:20:55;7.43;;;4.10;;
47749;SDS011;49810;48.160;10.812;2022-11-15T09:23:42;10.90;;;5.43;;
47749;SDS011;49810;48.160;10.812;2022-11-15T09:26:30;11.60;;;4.65;;
47749;SDS011;49810;48.160;10.812;2022-11-15T09:29:17;10.68;;;4.70;;
47749;SDS011;49810;48.160;10.812;2022-11-15T09:32:04;9.48;;;5.28;;
47749;SDS011;49810;48.160;10.812;2022-11-15T09:34:53;9.93;;;4.65;;
47749;SDS011;49810;48.160;10.812;2022-11-15T09:37:40;7.82;;;4.72;;
47749;SDS011;49810;48.160;10.812;2022-11-15T09:40:27;8.60;;;5.28;;
47749;SDS011;49810;48.160;10.812;2022-11-15T09:43:23;11.38;;;4.88;;
47749;SDS011;49810;48.160;10.812;2022-11-15T09:46:15;9.60;;;5.10;;
47749;SDS011;49810;48.160;10.812;2022-11-15T09:49:11;9.95;;;5.38;;
47749;SDS011;49810;48.160;10.812;2022-11-15T09:51:56;6.85;;;4.50;;
47749;SDS011;49810;48.160;10.812;2022-11-15T09:54:28;8.25;;;4.55;;
47749;SDS011;49810;48.160;10.812;2022-11-15T09:57:20;10.63;;;5.20;;
47749;SDS011;49810;48.160;10.812;2022-11-15T09:59:55;11.48;;;4.40;;
47749;SDS011;49810;48.160;10.812;2022-11-15T10:02:54;6.97;;;4.25;;
47749;SDS011;49810;48.160;10.812;2022-11-15T10:05:38;6.40;;;4.10;;
47749;SDS011;49810;48.160;10.812;2022-11-15T10:08:24;8.07;;;4.05;;
47749;SDS011;49810;48.160;10.812;2022-11-15T10:10:59;7.00;;;4.40;;
47749;SDS011;49810;48.160;10.812;2022-11-15T10:13:50;7.00;;;4.22;;
47749;SDS011;49810;48.160;10.812;2022-11-15T10:16:28;8.02;;;4.00;;
47749;SDS011;49810;48.160;10.812;2022-11-15T10:19:13;8.00;;;4.43;;
47749;SDS011;49810;48.160;10.812;2022-11-15T10:21:54;6.07;;;3.83;;
47749;SDS011;49810;48.160;10.812;2022-11-15T10:24:34;8.57;;;4.53;;
47749;SDS011;49810;48.160;10.812;2022-11-15T10:27:08;8.07;;;4.03;;
47749;SDS011;49810;48.160;10.812;2022-11-15T10:29:42;9.63;;;4.53;;
47749;SDS011;49810;48.160;10.812;2022-11-15T10:32:11;9.40;;;4.00;;
47749;SDS011;49810;48.160;10.812;2022-11-15T10:34:41;6.05;;;3.67;;
47749;SDS011;49810;48.160;10.812;2022-11-15T10:37:09;8.65;;;3.78;;
47749;SDS011;49810;48.160;10.812;2022-11-15T10:39:39;6.85;;;3.65;;
47749;SDS011;49810;48.160;10.812;2022-11-15T10:42:17;9.57;;;4.13;;
47749;SDS011;49810;48.160;10.812;2022-11-15T10:44:53;7.90;;;4.60;;
47749;SDS011;49810;48.160;10.812;2022-11-15T10:47:23;9.40;;;4.10;;
47749;SDS011;49810;48.160;10.812;2022-11-15T10:49:57;8.30;;;4.20;;
47749;SDS011;49810;48.160;10.812;2022-11-15T10:52:27;9.50;;;4.97;;
47749;SDS011;49810;48.160;10.812;2022-11-15T10:55:00;10.35;;;4.45;;
47749;SDS011;49810;48.160;10.812;2022-11-15T10:57:33;7.30;;;4.38;;
47749;SDS011;49810;48.160;10.812;2022-11-15T11:00:06;8.82;;;4.28;;
47749;SDS011;49810;48.160;10.812;2022-11-15T11:02:56;7.90;;;3.80;;
47749;SDS011;49810;48.160;10.812;2022-11-15T11:05:28;9.02;;;3.72;;
47749;SDS011;49810;48.160;10.812;2022-11-15T11:08:09;9.50;;;3.72;;
47749;SDS011;49810;48.160;10.812;2022-11-15T11:10:53;5.72;;;3.47;;
47749;SDS011;49810;48.160;10.812;2022-11-15T11:13:29;10.15;;;5.03;;
47749;SDS011;49810;48.160;10.812;2022-11-15T11:16:03;9.85;;;4.93;;
47749;SDS011;49810;48.160;10.812;2022-11-15T11:18:46;9.55;;;4.65;;
47749;SDS011;49810;48.160;10.812;2022-11-15T11:21:24;13.32;;;4.68;;
47749;SDS011;49810;48.160;10.812;2022-11-15T11:24:06;7.68;;;4.80;;
47749;SDS011;49810;48.160;10.812;2022-11-15T11:26:44;11.73;;;5.15;;
47749;SDS011;49810;48.160;10.812;2022-11-15T11:29:28;8.70;;;5.30;;
47749;SDS011;49810;48.160;10.812;2022-11-15T11:32:22;12.20;;;5.95;;
47749;SDS011;49810;48.160;10.812;2022-11-15T11:34:57;8.38;;;5.00;;
47749;SDS011;49810;48.160;10.812;2022-11-15T11:37:35;8.90;;;4.80;;
47749;SDS011;49810;48.160;10.812;2022-11-15T11:40:12;10.52;;;5.68;;
47749;SDS011;49810;48.160;10.812;2022-11-15T11:42:52;10.65;;;5.25;;
47749;SDS011;49810;48.160;10.812;2022-11-15T11:45:30;12.88;;;7.47;;
47749;SDS011;49810;48.160;10.812;2022-11-15T11:48:28;11.25;;;6.10;;
47749;SDS011;49810;48.160;10.812;2022-11-15T11:51:11;15.93;;;8.05;;
47749;SDS011;49810;48.160;10.812;2022-11-15T11:53:47;13.75;;;5.57;;
47749;SDS011;49810;48.160;10.812;2022-11-15T11:56:25;13.63;;;5.03;;
47749;SDS011;49810;48.160;10.812;2022-11-15T11:59:00;8.60;;;4.85;;
47749;SDS011;49810;48.160;10.812;2022-11-15T12:01:35;9.65;;;4.32;;
47749;SDS011;49810;48.160;10.812;2022-11-15T12:04:09;7.80;;;4.30;;
47749;SDS011;49810;48.160;10.812;2022-11-15T12:06:47;8.52;;;4.20;;
47749;SDS011;49810;48.160;10.812;2022-11-15T12:09:21;5.30;;;3.60;;
47749;SDS011;49810;48.160;10.812;2022-11-15T12:11:53;6.18;;;4.20;;
47749;SDS011;49810;48.160;10.812;2022-11-15T12:14:31;4.10;;;2.95;;
47749;SDS011;49810;48.160;10.812;2022-11-15T12:17:03;7.97;;;4.55;;
47749;SDS011;49810;48.160;10.812;2022-11-15T12:19:31;6.47;;;3.58;;
47749;SDS011;49810;48.160;10.812;2022-11-15T12:22:00;8.43;;;4.20;;
47749;SDS011;49810;48.160;10.812;2022-11-15T12:24:34;5.93;;;3.42;;
47749;SDS011;49810;48.160;10.812;2022-11-15T12:27:19;5.93;;;3.60;;
47749;SDS011;49810;48.160;10.812;2022-11-15T12:30:03;6.97;;;3.45;;
47749;SDS011;49810;48.160;10.812;2022-11-15T12:32:38;7.95;;;3.05;;
47749;SDS011;49810;48.160;10.812;2022-11-15T12:35:23;6.40;;;2.97;;
47749;SDS011;49810;48.160;10.812;2022-11-15T12:37:55;5.63;;;3.17;;
47749;SDS011;49810;48.160;10.812;2022-11-15T12:40:27;5.47;;;3.15;;
47749;SDS011;49810;48.160;10.812;2022-11-15T12:42:58;5.78;;;3.70;;
47749;SDS011;49810;48.160;10.812;2022-11-15T12:46:02;7.90;;;5.95;;
47749;SDS011;49810;48.160;10.812;2022-11-15T12:48:46;6.53;;;3.60;;
47749;SDS011;49810;48.160;10.812;2022-11-15T12:51:20;7.00;;;3.53;;
47749;SDS011;49810;48.160;10.812;2022-11-15T12:53:49;5.32;;;3.30;;
47749;SDS011;49810;48.160;10.812;2022-11-15T12:56:21;7.57;;;3.60;;
47749;SDS011;49810;48.160;10.812;2022-11-15T12:58:55;4.15;;;2.60;;
47749;SDS011;49810;48.160;10.812;2022-11-15T13:04:24;6.38;;;2.80;;
47749;SDS011;49810;48.160;10.812;2022-11-15T13:06:55;6.57;;;2.92;;
47749;SDS011;49810;48.160;10.812;2022-11-15T13:18:29;5.45;;;2.53;;
47749;SDS011;49810;48.160;10.812;2022-11-15T13:21:16;4.63;;;2.60;;
47749;SDS011;49810;48.160;10.812;2022-11-15T13:24:12;7.50;;;3.33;;
47749;SDS011;49810;48.160;10.812;2022-11-15T13:26:41;5.85;;;3.38;;
47749;SDS011;49810;48.160;10.812;2022-11-15T13:29:14;5.93;;;3.30;;
47749;SDS011;49810;48.160;10.812;2022-11-15T13:31:44;6.53;;;4.07;;
47749;SDS011;49810;48.160;10.812;2022-11-15T13:34:20;12.27;;;6.07;;
47749;SDS011;49810;48.160;10.812;2022-11-15T13:37:27;6.32;;;4.00;;
47749;SDS011;49810;48.160;10.812;2022-11-15T13:40:09;6.32;;;3.80;;
47749;SDS011;49810;48.160;10.812;2022-11-15T13:42:46;41.63;;;36.28;;
47749;SDS011;49810;48.160;10.812;2022-11-15T13:45:15;7.78;;;4.25;;
47749;SDS011;49810;48.160;10.812;2022-11-15T13:47:50;7.97;;;4.47;;
47749;SDS011;49810;48.160;10.812;2022-11-15T13:50:23;7.40;;;4.28;;
47749;SDS011;49810;48.160;10.812;2022-11-15T13:52:55;13.70;;;8.98;;
47749;SDS011;49810;48.160;10.812;2022-11-15T13:55:26;11.80;;;5.72;;
47749;SDS011;49810;48.160;10.812;2022-11-15T13:57:56;7.05;;;4.50;;
47749;SDS011;49810;48.160;10.812;2022-11-15T14:00:30;12.38;;;4.75;;
47749;SDS011;49810;48.160;10.812;2022-11-15T14:03:06;7.90;;;4.15;;
47749;SDS011;49810;48.160;10.812;2022-11-15T14:05:43;6.20;;;4.00;;
47749;SDS011;49810;48.160;10.812;2022-11-15T14:08:21;5.90;;;4.05;;
47749;SDS011;49810;48.160;10.812;2022-11-15T14:11:05;6.43;;;4.45;;
47749;SDS011;49810;48.160;10.812;2022-11-15T14:13:35;5.43;;;3.63;;
47749;SDS011;49810;48.160;10.812;2022-11-15T14:16:12;6.60;;;3.72;;
47749;SDS011;49810;48.160;10.812;2022-11-15T14:18:43;7.05;;;3.58;;
47749;SDS011;49810;48.160;10.812;2022-11-15T14:21:16;7.47;;;4.10;;
47749;SDS011;49810;48.160;10.812;2022-11-15T14:23:45;6.93;;;4.03;;
47749;SDS011;49810;48.160;10.812;2022-11-15T14:26:29;10.52;;;3.85;;
47749;SDS011;49810;48.160;10.812;2022-11-15T14:31:52;7.28;;;3.55;;
47749;SDS011;49810;48.160;10.812;2022-11-15T14:34:21;9.90;;;4.63;;
47749;SDS011;49810;48.160;10.812;2022-11-15T14:36:50;6.35;;;4.10;;
47749;SDS011;49810;48.160;10.812;2022-11-15T14:39:19;13.75;;;7.80;;
47749;SDS011;49810;48.160;10.812;2022-11-15T14:41:47;73.10;;;40.83;;
47749;SDS011;49810;48.160;10.812;2022-11-15T14:44:15;17.13;;;10.23;;
47749;SDS011;49810;48.160;10.812;2022-11-15T14:46:45;13.88;;;8.18;;
47749;SDS011;49810;48.160;10.812;2022-11-15T14:49:14;12.63;;;8.10;;
47749;SDS011;49810;48.160;10.812;2022-11-15T14:51:43;10.55;;;6.00;;
47749;SDS011;49810;48.160;10.812;2022-11-15T14:54:12;14.32;;;7.40;;
47749;SDS011;49810;48.160;10.812;2022-11-15T14:56:40;15.15;;;8.70;;
47749;SDS011;49810;48.160;10.812;2022-11-15T14:59:09;7.18;;;4.43;;
47749;SDS011;49810;48.160;10.812;2022-11-15T15:01:37;14.48;;;4.80;;
47749;SDS011;49810;48.160;10.812;2022-11-15T15:04:06;7.70;;;4.10;;
47749;SDS011;49810;48.160;10.812;2022-11-15T15:06:34;9.00;;;4.57;;
47749;SDS011;49810;48.160;10.812;2022-11-15T15:09:02;9.95;;;4.80;;
47749;SDS011;49810;48.160;10.812;2022-11-15T15:11:33;10.30;;;5.53;;
47749;SDS011;49810;48.160;10.812;2022-11-15T15:14:01;11.18;;;7.38;;
47749;SDS011;49810;48.160;10.812;2022-11-15T15:16:29;27.02;;;19.58;;
47749;SDS011;49810;48.160;10.812;2022-11-15T15:18:57;29.60;;;22.48;;
47749;SDS011;49810;48.160;10.812;2022-11-15T15:21:26;26.88;;;20.25;;
47749;SDS011;49810;48.160;10.812;2022-11-15T15:24:02;30.27;;;20.00;;
47749;SDS011;49810;48.160;10.812;2022-11-15T15:26:32;25.92;;;18.20;;
47749;SDS011;49810;48.160;10.812;2022-11-15T15:29:03;22.60;;;16.65;;
47749;SDS011;49810;48.160;10.812;2022-11-15T15:31:31;20.98;;;13.52;;
47749;SDS011;49810;48.160;10.812;2022-11-15T15:34:00;18.23;;;12.38;;
47749;SDS011;49810;48.160;10.812;2022-11-15T15:36:29;16.60;;;10.77;;
47749;SDS011;49810;48.160;10.812;2022-11-15T15:38:57;17.73;;;12.00;;
47749;SDS011;49810;48.160;10.812;2022-11-15T15:41:25;16.42;;;9.80;;
47749;SDS011;49810;48.160;10.812;2022-11-15T15:43:55;13.30;;;9.13;;
47749;SDS011;49810;48.160;10.812;2022-11-15T15:46:23;12.77;;;8.57;;
47749;SDS011;49810;48.160;10.812;2022-11-15T15:48:52;14.82;;;9.82;;
47749;SDS011;49810;48.160;10.812;2022-11-15T15:51:20;19.23;;;11.10;;
47749;SDS011;49810;48.160;10.812;2022-11-15T15:53:48;18.33;;;12.73;;
47749;SDS011;49810;48.160;10.812;2022-11-15T15:56:18;19.85;;;13.90;;
47749;SDS011;49810;48.160;10.812;2022-11-15T15:58:46;22.20;;;14.13;;
47749;SDS011;49810;48.160;10.812;2022-11-15T16:01:15;21.23;;;14.32;;
47749;SDS011;49810;48.160;10.812;2022-11-15T16:03:43;15.98;;;10.52;;
47749;SDS011;49810;48.160;10.812;2022-11-15T16:09:03;16.25;;;8.73;;
47749;SDS011;49810;48.160;10.812;2022-11-15T16:11:41;29.42;;;16.27;;
47749;SDS011;49810;48.160;10.812;2022-11-15T16:14:11;17.42;;;10.98;;
47749;SDS011;49810;48.160;10.812;2022-11-15T16:16:41;16.52;;;9.45;;